sensor_id;sensor_type;location;lat;lon;timestamp;pressure;altitude;pressure_sealevel;temperature;humidity
50302;BME280;36550;50.472;19.744;2023-04-07T00:02:09;97950.57;;;0.77;90.60
50302;BME280;36550;50.472;19.744;2023-04-07T00:04:53;97951.29;;;0.80;90.12
50302;BME280;36550;50.472;19.744;2023-04-07T00:07:37;97946.30;;;0.79;90.19
50302;BME280;36550;50.472;19.744;2023-04-07T00:10:21;97942.38;;;0.77;90.15
50302;BME280;36550;50.472;19.744;2023-04-07T00:13:05;97939.77;;;0.75;90.27
50302;BME280;36550;50.472;19.744;2023-04-07T00:15:49;97944.35;;;0.76;90.23
50302;BME280;36550;50.472;19.744;2023-04-07T00:18:33;97943.56;;;0.79;90.05
50302;BME280;36550;50.472;19.744;2023-04-07T00:21:17;97944.98;;;0.80;90.22
50302;BME280;36550;50.472;19.744;2023-04-07T00:24:02;97943.09;;;0.81;90.03
50302;BME280;36550;50.472;19.744;2023-04-07T00:26:45;97941.77;;;0.81;90.07
50302;BME280;36550;50.472;19.744;2023-04-07T00:29:30;97940.83;;;0.82;89.96
50302;BME280;36550;50.472;19.744;2023-04-07T00:32:14;97931.48;;;0.79;90.39
50302;BME280;36550;50.472;19.744;2023-04-07T00:34:58;97935.37;;;0.81;90.17
50302;BME280;36550;50.472;19.744;2023-04-07T00:37:42;97929.64;;;0.81;90.44
50302;BME280;36550;50.472;19.744;2023-04-07T00:40:26;97927.03;;;0.82;90.43
50302;BME280;36550;50.472;19.744;2023-04-07T00:43:10;97928.91;;;0.82;90.17
50302;BME280;36550;50.472;19.744;2023-04-07T00:45:54;97933.95;;;0.81;90.05
50302;BME280;36550;50.472;19.744;2023-04-07T00:48:38;97938.04;;;0.82;90.01
50302;BME280;36550;50.472;19.744;2023-04-07T00:51:22;97935.13;;;0.83;90.06
50302;BME280;36550;50.472;19.744;2023-04-07T00:54:07;97935.27;;;0.82;90.25
50302;BME280;36550;50.472;19.744;2023-04-07T00:56:52;97928.72;;;0.82;90.23
50302;BME280;36550;50.472;19.744;2023-04-07T00:59:36;97926.15;;;0.83;89.90
50302;BME280;36550;50.472;19.744;2023-04-07T01:06:01;97919.02;;;0.90;89.74
50302;BME280;36550;50.472;19.744;2023-04-07T01:11:43;97918.30;;;0.84;90.20
50302;BME280;36550;50.472;19.744;2023-04-07T01:14:33;97922.81;;;0.88;89.80
50302;BME280;36550;50.472;19.744;2023-04-07T01:17:23;97920.88;;;0.89;90.04
50302;BME280;36550;50.472;19.744;2023-04-07T01:20:11;97919.16;;;0.90;89.92
50302;BME280;36550;50.472;19.744;2023-04-07T01:23:00;97919.77;;;0.91;89.87
50302;BME280;36550;50.472;19.744;2023-04-07T01:25:53;97916.21;;;0.90;89.95
50302;BME280;36550;50.472;19.744;2023-04-07T01:31:27;97914.49;;;0.88;90.14
50302;BME280;36550;50.472;19.744;2023-04-07T01:34:11;97918.80;;;0.89;89.99
50302;BME280;36550;50.472;19.744;2023-04-07T01:36:58;97919.34;;;0.90;89.85
50302;BME280;36550;50.472;19.744;2023-04-07T01:39:43;97918.90;;;0.90;90.00
50302;BME280;36550;50.472;19.744;2023-04-07T01:42:27;97915.95;;;0.88;90.23
50302;BME280;36550;50.472;19.744;2023-04-07T01:45:15;97914.05;;;0.88;90.08
50302;BME280;36550;50.472;19.744;2023-04-07T01:47:59;97912.83;;;0.90;90.03
50302;BME280;36550;50.472;19.744;2023-04-07T01:50:44;97905.75;;;0.90;90.39
50302;BME280;36550;50.472;19.744;2023-04-07T01:53:29;97911.20;;;0.90;90.05
50302;BME280;36550;50.472;19.744;2023-04-07T01:56:14;97911.13;;;0.93;89.95
50302;BME280;36550;50.472;19.744;2023-04-07T01:58:59;97903.31;;;0.95;90.13
50302;BME280;36550;50.472;19.744;2023-04-07T02:01:44;97907.86;;;0.96;90.00
50302;BME280;36550;50.472;19.744;2023-04-07T02:04:32;97907.02;;;0.99;89.90
50302;BME280;36550;50.472;19.744;2023-04-07T02:07:26;97907.52;;;1.00;89.99
50302;BME280;36550;50.472;19.744;2023-04-07T02:10:14;97906.53;;;1.00;90.00
50302;BME280;36550;50.472;19.744;2023-04-07T02:13:00;97902.74;;;0.97;90.28
50302;BME280;36550;50.472;19.744;2023-04-07T02:15:47;97901.10;;;0.96;90.04
50302;BME280;36550;50.472;19.744;2023-04-07T02:18:33;97901.70;;;0.95;89.95
50302;BME280;36550;50.472;19.744;2023-04-07T02:21:17;97904.39;;;0.94;90.39
50302;BME280;36550;50.472;19.744;2023-04-07T02:24:05;97897.73;;;0.94;90.27
50302;BME280;36550;50.472;19.744;2023-04-07T02:26:49;97900.95;;;0.93;90.22
50302;BME280;36550;50.472;19.744;2023-04-07T02:29:33;97903.81;;;0.90;90.16
50302;BME280;36550;50.472;19.744;2023-04-07T02:32:17;97902.00;;;0.87;90.66
50302;BME280;36550;50.472;19.744;2023-04-07T02:35:02;97902.20;;;0.86;90.60
50302;BME280;36550;50.472;19.744;2023-04-07T02:37:46;97906.59;;;0.90;90.06
50302;BME280;36550;50.472;19.744;2023-04-07T02:40:30;97901.52;;;0.92;90.26
50302;BME280;36550;50.472;19.744;2023-04-07T02:43:15;97897.27;;;0.97;90.13
50302;BME280;36550;50.472;19.744;2023-04-07T02:46:00;97896.56;;;0.98;89.94
50302;BME280;36550;50.472;19.744;2023-04-07T02:48:44;97892.59;;;0.98;90.27
50302;BME280;36550;50.472;19.744;2023-04-07T02:51:28;97887.44;;;0.97;90.34
50302;BME280;36550;50.472;19.744;2023-04-07T02:54:12;97881.34;;;0.97;90.07
50302;BME280;36550;50.472;19.744;2023-04-07T02:56:56;97876.94;;;0.98;90.15
50302;BME280;36550;50.472;19.744;2023-04-07T02:59:40;97873.55;;;1.01;89.91
50302;BME280;36550;50.472;19.744;2023-04-07T03:02:24;97873.89;;;1.02;89.91
50302;BME280;36550;50.472;19.744;2023-04-07T03:05:09;97870.95;;;1.03;89.86
50302;BME280;36550;50.472;19.744;2023-04-07T03:07:53;97867.20;;;1.01;90.15
50302;BME280;36550;50.472;19.744;2023-04-07T03:10:37;97871.15;;;1.02;90.09
50302;BME280;36550;50.472;19.744;2023-04-07T03:13:21;97881.80;;;1.02;90.18
50302;BME280;36550;50.472;19.744;2023-04-07T03:16:05;97883.45;;;1.03;89.98
50302;BME280;36550;50.472;19.744;2023-04-07T03:18:49;97883.15;;;1.07;89.93
50302;BME280;36550;50.472;19.744;2023-04-07T03:21:37;97885.94;;;1.08;90.05
50302;BME280;36550;50.472;19.744;2023-04-07T03:24:21;97880.56;;;1.07;90.05
50302;BME280;36550;50.472;19.744;2023-04-07T03:27:05;97881.06;;;1.06;90.07
50302;BME280;36550;50.472;19.744;2023-04-07T03:29:49;97887.10;;;1.06;90.08
50302;BME280;36550;50.472;19.744;2023-04-07T03:32:34;97884.45;;;1.06;90.13
50302;BME280;36550;50.472;19.744;2023-04-07T03:35:18;97883.89;;;1.07;90.18
50302;BME280;36550;50.472;19.744;2023-04-07T03:38:02;97879.15;;;1.06;90.11
50302;BME280;36550;50.472;19.744;2023-04-07T03:40:46;97870.83;;;1.08;90.06
50302;BME280;36550;50.472;19.744;2023-04-07T03:43:30;97865.95;;;1.08;90.14
50302;BME280;36550;50.472;19.744;2023-04-07T03:46:14;97865.77;;;1.10;89.83
50302;BME280;36550;50.472;19.744;2023-04-07T03:48:59;97867.50;;;1.08;90.15
50302;BME280;36550;50.472;19.744;2023-04-07T03:51:43;97865.50;;;1.08;90.00
50302;BME280;36550;50.472;19.744;2023-04-07T03:54:27;97867.40;;;1.02;90.61
50302;BME280;36550;50.472;19.744;2023-04-07T03:57:11;97860.33;;;0.99;90.70
50302;BME280;36550;50.472;19.744;2023-04-07T03:59:55;97856.61;;;0.97;90.77
50302;BME280;36550;50.472;19.744;2023-04-07T04:02:39;97856.84;;;0.94;90.76
50302;BME280;36550;50.472;19.744;2023-04-07T04:05:23;97860.36;;;0.92;90.86
50302;BME280;36550;50.472;19.744;2023-04-07T04:08:07;97866.22;;;0.94;90.66
50302;BME280;36550;50.472;19.744;2023-04-07T04:10:51;97873.64;;;0.95;90.69
50302;BME280;36550;50.472;19.744;2023-04-07T04:13:35;97880.57;;;0.97;90.82
50302;BME280;36550;50.472;19.744;2023-04-07T04:16:19;97877.01;;;1.01;90.56
50302;BME280;36550;50.472;19.744;2023-04-07T04:19:03;97882.80;;;1.03;90.34
50302;BME280;36550;50.472;19.744;2023-04-07T04:21:47;97892.58;;;1.00;90.64
50302;BME280;36550;50.472;19.744;2023-04-07T04:24:31;97898.63;;;1.00;90.40
50302;BME280;36550;50.472;19.744;2023-04-07T04:27:15;97903.32;;;1.03;90.51
50302;BME280;36550;50.472;19.744;2023-04-07T04:29:59;97902.16;;;1.05;90.35
50302;BME280;36550;50.472;19.744;2023-04-07T04:32:43;97902.91;;;1.04;90.43
50302;BME280;36550;50.472;19.744;2023-04-07T04:35:27;97901.85;;;1.03;90.73
50302;BME280;36550;50.472;19.744;2023-04-07T04:38:11;97891.88;;;1.06;90.34
50302;BME280;36550;50.472;19.744;2023-04-07T04:40:55;97892.54;;;1.11;90.38
50302;BME280;36550;50.472;19.744;2023-04-07T04:43:39;97893.55;;;1.09;90.61
50302;BME280;36550;50.472;19.744;2023-04-07T04:46:23;97893.38;;;1.08;90.81
50302;BME280;36550;50.472;19.744;2023-04-07T04:49:07;97889.65;;;1.06;90.99
50302;BME280;36550;50.472;19.744;2023-04-07T04:51:51;97894.34;;;1.06;91.02
50302;BME280;36550;50.472;19.744;2023-04-07T04:54:35;97900.13;;;1.08;90.72
50302;BME280;36550;50.472;19.744;2023-04-07T04:57:19;97895.81;;;1.14;90.47
50302;BME280;36550;50.472;19.744;2023-04-07T05:00:06;97901.63;;;1.17;90.59
50302;BME280;36550;50.472;19.744;2023-04-07T05:02:50;97898.59;;;1.20;90.49
50302;BME280;36550;50.472;19.744;2023-04-07T05:05:35;97894.52;;;1.21;90.57
50302;BME280;36550;50.472;19.744;2023-04-07T05:08:19;97896.94;;;1.26;90.38
50302;BME280;36550;50.472;19.744;2023-04-07T05:11:03;97899.52;;;1.31;90.21
50302;BME280;36550;50.472;19.744;2023-04-07T05:13:47;97893.55;;;1.33;90.29
50302;BME280;36550;50.472;19.744;2023-04-07T05:16:31;97890.36;;;1.42;90.10
50302;BME280;36550;50.472;19.744;2023-04-07T05:19:15;97889.83;;;1.48;89.99
50302;BME280;36550;50.472;19.744;2023-04-07T05:21:59;97884.54;;;1.53;89.90
50302;BME280;36550;50.472;19.744;2023-04-07T05:24:42;97886.29;;;1.57;89.83
50302;BME280;36550;50.472;19.744;2023-04-07T05:27:27;97887.44;;;1.64;89.85
50302;BME280;36550;50.472;19.744;2023-04-07T05:30:11;97891.42;;;1.69;89.79
50302;BME280;36550;50.472;19.744;2023-04-07T05:32:55;97898.40;;;1.76;89.39
50302;BME280;36550;50.472;19.744;2023-04-07T05:35:39;97903.35;;;1.84;89.29
50302;BME280;36550;50.472;19.744;2023-04-07T05:38:23;97907.30;;;1.96;89.36
50302;BME280;36550;50.472;19.744;2023-04-07T05:41:07;97907.27;;;2.06;89.27
50302;BME280;36550;50.472;19.744;2023-04-07T05:43:51;97906.20;;;2.14;89.24
50302;BME280;36550;50.472;19.744;2023-04-07T05:46:35;97903.13;;;2.22;89.28
50302;BME280;36550;50.472;19.744;2023-04-07T05:49:19;97900.25;;;2.28;89.02
50302;BME280;36550;50.472;19.744;2023-04-07T05:52:03;97903.39;;;2.32;88.82
50302;BME280;36550;50.472;19.744;2023-04-07T05:54:48;97900.12;;;2.35;88.28
50302;BME280;36550;50.472;19.744;2023-04-07T05:57:32;97898.41;;;2.39;88.16
50302;BME280;36550;50.472;19.744;2023-04-07T06:00:17;97893.10;;;2.43;87.96
50302;BME280;36550;50.472;19.744;2023-04-07T06:03:02;97893.52;;;2.45;87.62
50302;BME280;36550;50.472;19.744;2023-04-07T06:05:46;97895.38;;;2.43;87.45
50302;BME280;36550;50.472;19.744;2023-04-07T06:08:31;97893.07;;;2.43;87.47
50302;BME280;36550;50.472;19.744;2023-04-07T06:11:15;97888.34;;;2.46;87.59
50302;BME280;36550;50.472;19.744;2023-04-07T06:13:59;97884.88;;;2.53;87.57
50302;BME280;36550;50.472;19.744;2023-04-07T06:16:43;97878.34;;;2.59;87.39
50302;BME280;36550;50.472;19.744;2023-04-07T06:19:27;97878.34;;;2.68;87.23
50302;BME280;36550;50.472;19.744;2023-04-07T06:22:11;97878.01;;;2.80;87.34
50302;BME280;36550;50.472;19.744;2023-04-07T06:24:55;97886.55;;;2.91;87.02
50302;BME280;36550;50.472;19.744;2023-04-07T06:27:39;97900.10;;;2.95;86.65
50302;BME280;36550;50.472;19.744;2023-04-07T06:30:23;97901.55;;;2.95;86.33
50302;BME280;36550;50.472;19.744;2023-04-07T06:33:07;97900.28;;;2.95;86.04
50302;BME280;36550;50.472;19.744;2023-04-07T06:35:51;97896.39;;;3.07;86.48
50302;BME280;36550;50.472;19.744;2023-04-07T06:38:35;97891.14;;;3.21;86.57
50302;BME280;36550;50.472;19.744;2023-04-07T06:41:19;97896.59;;;3.31;86.29
50302;BME280;36550;50.472;19.744;2023-04-07T06:44:03;97897.23;;;3.38;86.23
50302;BME280;36550;50.472;19.744;2023-04-07T06:46:48;97900.92;;;3.44;86.10
50302;BME280;36550;50.472;19.744;2023-04-07T06:49:35;97905.60;;;3.44;85.43
50302;BME280;36550;50.472;19.744;2023-04-07T06:52:19;97906.19;;;3.41;85.25
50302;BME280;36550;50.472;19.744;2023-04-07T06:55:04;97912.30;;;3.42;85.34
50302;BME280;36550;50.472;19.744;2023-04-07T06:57:50;97907.03;;;3.43;85.08
50302;BME280;36550;50.472;19.744;2023-04-07T07:00:35;97903.16;;;3.38;84.95
50302;BME280;36550;50.472;19.744;2023-04-07T07:03:19;97905.84;;;3.36;84.89
50302;BME280;36550;50.472;19.744;2023-04-07T07:06:03;97902.29;;;3.31;84.94
50302;BME280;36550;50.472;19.744;2023-04-07T07:08:47;97893.30;;;3.28;84.89
50302;BME280;36550;50.472;19.744;2023-04-07T07:11:31;97888.89;;;3.33;84.97
50302;BME280;36550;50.472;19.744;2023-04-07T07:14:15;97887.76;;;3.34;84.35
50302;BME280;36550;50.472;19.744;2023-04-07T07:16:58;97896.00;;;3.34;84.25
50302;BME280;36550;50.472;19.744;2023-04-07T07:19:43;97900.88;;;3.37;84.44
50302;BME280;36550;50.472;19.744;2023-04-07T07:22:26;97895.48;;;3.42;84.77
50302;BME280;36550;50.472;19.744;2023-04-07T07:25:10;97902.48;;;3.47;84.90
50302;BME280;36550;50.472;19.744;2023-04-07T07:27:54;97903.34;;;3.54;84.72
50302;BME280;36550;50.472;19.744;2023-04-07T07:30:40;97908.13;;;3.60;84.58
50302;BME280;36550;50.472;19.744;2023-04-07T07:33:24;97897.45;;;3.67;84.68
50302;BME280;36550;50.472;19.744;2023-04-07T07:36:08;97891.46;;;3.73;84.34
50302;BME280;36550;50.472;19.744;2023-04-07T07:38:53;97895.34;;;3.84;84.68
50302;BME280;36550;50.472;19.744;2023-04-07T07:41:36;97890.98;;;3.95;84.78
50302;BME280;36550;50.472;19.744;2023-04-07T07:44:20;97893.61;;;4.03;84.74
50302;BME280;36550;50.472;19.744;2023-04-07T07:47:05;97896.86;;;4.09;84.32
50302;BME280;36550;50.472;19.744;2023-04-07T07:49:49;97897.55;;;4.09;83.84
50302;BME280;36550;50.472;19.744;2023-04-07T07:52:33;97896.26;;;4.10;83.61
50302;BME280;36550;50.472;19.744;2023-04-07T07:55:17;97896.98;;;4.12;83.26
50302;BME280;36550;50.472;19.744;2023-04-07T07:58:01;97897.90;;;4.08;83.06
50302;BME280;36550;50.472;19.744;2023-04-07T08:00:45;97895.69;;;4.06;83.23
50302;BME280;36550;50.472;19.744;2023-04-07T08:03:29;97898.09;;;4.07;83.37
50302;BME280;36550;50.472;19.744;2023-04-07T08:06:13;97903.08;;;4.04;82.69
50302;BME280;36550;50.472;19.744;2023-04-07T08:08:56;97900.89;;;4.06;83.07
50302;BME280;36550;50.472;19.744;2023-04-07T08:11:42;97901.10;;;4.08;83.13
50302;BME280;36550;50.472;19.744;2023-04-07T08:14:26;97901.11;;;4.13;83.13
50302;BME280;36550;50.472;19.744;2023-04-07T08:17:10;97902.52;;;4.17;82.94
50302;BME280;36550;50.472;19.744;2023-04-07T08:19:55;97901.41;;;4.25;83.24
50302;BME280;36550;50.472;19.744;2023-04-07T08:22:38;97901.17;;;4.35;83.29
50302;BME280;36550;50.472;19.744;2023-04-07T08:25:23;97904.42;;;4.42;83.31
50302;BME280;36550;50.472;19.744;2023-04-07T08:28:07;97913.55;;;4.42;83.01
50302;BME280;36550;50.472;19.744;2023-04-07T08:30:51;97917.88;;;4.39;82.96
50302;BME280;36550;50.472;19.744;2023-04-07T08:33:35;97916.81;;;4.37;82.86
50302;BME280;36550;50.472;19.744;2023-04-07T08:36:19;97912.80;;;4.33;82.81
50302;BME280;36550;50.472;19.744;2023-04-07T08:39:03;97910.15;;;4.31;82.70
50302;BME280;36550;50.472;19.744;2023-04-07T08:41:49;97909.92;;;4.34;82.68
50302;BME280;36550;50.472;19.744;2023-04-07T08:44:34;97907.56;;;4.33;82.37
50302;BME280;36550;50.472;19.744;2023-04-07T08:47:19;97901.91;;;4.36;82.49
50302;BME280;36550;50.472;19.744;2023-04-07T08:50:09;97904.50;;;4.39;82.32
50302;BME280;36550;50.472;19.744;2023-04-07T08:52:55;97902.33;;;4.35;82.14
50302;BME280;36550;50.472;19.744;2023-04-07T08:55:40;97895.20;;;4.34;82.44
50302;BME280;36550;50.472;19.744;2023-04-07T08:58:24;97893.77;;;4.38;82.45
50302;BME280;36550;50.472;19.744;2023-04-07T09:01:09;97896.79;;;4.39;82.29
50302;BME280;36550;50.472;19.744;2023-04-07T09:03:55;97888.55;;;4.44;82.15
50302;BME280;36550;50.472;19.744;2023-04-07T09:06:39;97887.55;;;4.49;82.07
50302;BME280;36550;50.472;19.744;2023-04-07T09:09:23;97886.17;;;4.55;81.99
50302;BME280;36550;50.472;19.744;2023-04-07T09:12:07;97888.20;;;4.59;82.10
50302;BME280;36550;50.472;19.744;2023-04-07T09:14:52;97893.02;;;4.54;81.86
50302;BME280;36550;50.472;19.744;2023-04-07T09:17:36;97886.37;;;4.49;81.82
50302;BME280;36550;50.472;19.744;2023-04-07T09:20:20;97881.48;;;4.49;82.16
50302;BME280;36550;50.472;19.744;2023-04-07T09:23:04;97878.09;;;4.54;82.11
50302;BME280;36550;50.472;19.744;2023-04-07T09:25:48;97888.95;;;4.59;82.15
50302;BME280;36550;50.472;19.744;2023-04-07T09:28:40;97893.37;;;4.60;82.01
50302;BME280;36550;50.472;19.744;2023-04-07T09:34:33;97891.98;;;4.69;81.89
50302;BME280;36550;50.472;19.744;2023-04-07T09:37:21;97893.27;;;4.77;81.96
50302;BME280;36550;50.472;19.744;2023-04-07T09:40:05;97896.11;;;4.89;81.99
50302;BME280;36550;50.472;19.744;2023-04-07T09:42:50;97899.70;;;4.99;81.93
50302;BME280;36550;50.472;19.744;2023-04-07T09:45:34;97901.75;;;5.06;81.96
50302;BME280;36550;50.472;19.744;2023-04-07T09:48:20;97908.73;;;5.06;81.80
50302;BME280;36550;50.472;19.744;2023-04-07T09:51:06;97906.06;;;5.11;81.77
50302;BME280;36550;50.472;19.744;2023-04-07T09:53:51;97899.73;;;5.22;81.94
50302;BME280;36550;50.472;19.744;2023-04-07T09:56:35;97894.35;;;5.32;81.67
50302;BME280;36550;50.472;19.744;2023-04-07T09:59:19;97884.72;;;5.40;81.61
50302;BME280;36550;50.472;19.744;2023-04-07T10:02:04;97882.17;;;5.51;81.31
50302;BME280;36550;50.472;19.744;2023-04-07T10:04:48;97879.66;;;5.60;80.97
50302;BME280;36550;50.472;19.744;2023-04-07T10:07:33;97885.19;;;5.62;80.87
50302;BME280;36550;50.472;19.744;2023-04-07T10:10:18;97885.58;;;5.65;80.78
50302;BME280;36550;50.472;19.744;2023-04-07T10:13:04;97879.31;;;5.68;80.39
50302;BME280;36550;50.472;19.744;2023-04-07T10:15:51;97883.83;;;5.71;80.24
50302;BME280;36550;50.472;19.744;2023-04-07T10:18:37;97888.44;;;5.71;80.33
50302;BME280;36550;50.472;19.744;2023-04-07T10:21:22;97887.54;;;5.66;80.11
50302;BME280;36550;50.472;19.744;2023-04-07T10:27:03;97897.10;;;5.67;80.40
50302;BME280;36550;50.472;19.744;2023-04-07T10:29:51;97897.27;;;5.62;80.28
50302;BME280;36550;50.472;19.744;2023-04-07T10:32:46;97892.04;;;5.59;80.32
50302;BME280;36550;50.472;19.744;2023-04-07T10:36:07;97885.64;;;5.59;79.95
50302;BME280;36550;50.472;19.744;2023-04-07T10:41:51;97885.16;;;5.44;79.67
50302;BME280;36550;50.472;19.744;2023-04-07T10:47:25;97889.23;;;5.28;79.61
50302;BME280;36550;50.472;19.744;2023-04-07T10:50:21;97888.58;;;5.31;79.82
50302;BME280;36550;50.472;19.744;2023-04-07T10:53:12;97894.95;;;5.30;79.70
50302;BME280;36550;50.472;19.744;2023-04-07T10:55:57;97894.21;;;5.36;79.97
50302;BME280;36550;50.472;19.744;2023-04-07T10:58:42;97892.99;;;5.47;80.11
50302;BME280;36550;50.472;19.744;2023-04-07T11:01:26;97895.69;;;5.54;79.72
50302;BME280;36550;50.472;19.744;2023-04-07T11:04:10;97894.13;;;5.58;79.65
50302;BME280;36550;50.472;19.744;2023-04-07T11:06:54;97895.65;;;5.58;79.41
50302;BME280;36550;50.472;19.744;2023-04-07T11:09:39;97890.91;;;5.62;79.45
50302;BME280;36550;50.472;19.744;2023-04-07T11:12:23;97894.47;;;5.63;79.57
50302;BME280;36550;50.472;19.744;2023-04-07T11:15:18;97896.15;;;5.67;79.39
50302;BME280;36550;50.472;19.744;2023-04-07T11:20:56;97898.14;;;5.70;79.49
50302;BME280;36550;50.472;19.744;2023-04-07T11:23:45;97898.34;;;5.78;79.84
50302;BME280;36550;50.472;19.744;2023-04-07T11:26:29;97901.98;;;5.89;79.85
50302;BME280;36550;50.472;19.744;2023-04-07T11:29:27;97893.78;;;6.05;79.78
50302;BME280;36550;50.472;19.744;2023-04-07T11:32:12;97893.02;;;6.20;79.39
50302;BME280;36550;50.472;19.744;2023-04-07T11:34:56;97891.18;;;6.21;78.97
50302;BME280;36550;50.472;19.744;2023-04-07T11:37:40;97895.15;;;6.27;79.52
50302;BME280;36550;50.472;19.744;2023-04-07T11:40:33;97894.73;;;6.31;79.19
50302;BME280;36550;50.472;19.744;2023-04-07T11:43:19;97893.31;;;6.27;78.82
50302;BME280;36550;50.472;19.744;2023-04-07T11:46:05;97891.92;;;6.24;78.81
50302;BME280;36550;50.472;19.744;2023-04-07T11:48:49;97893.42;;;6.27;78.85
50302;BME280;36550;50.472;19.744;2023-04-07T11:51:32;97897.08;;;6.35;78.94
50302;BME280;36550;50.472;19.744;2023-04-07T11:54:16;97894.64;;;6.46;78.88
50302;BME280;36550;50.472;19.744;2023-04-07T11:57:00;97898.96;;;6.55;78.85
50302;BME280;36550;50.472;19.744;2023-04-07T11:59:44;97897.19;;;6.68;78.78
50302;BME280;36550;50.472;19.744;2023-04-07T12:02:32;97893.02;;;6.78;78.06
50302;BME280;36550;50.472;19.744;2023-04-07T12:05:17;97893.25;;;6.89;77.74
50302;BME280;36550;50.472;19.744;2023-04-07T12:08:01;97893.77;;;6.89;77.73
50302;BME280;36550;50.472;19.744;2023-04-07T12:10:45;97890.81;;;6.80;77.44
50302;BME280;36550;50.472;19.744;2023-04-07T12:13:29;97894.17;;;6.72;77.71
50302;BME280;36550;50.472;19.744;2023-04-07T12:16:13;97895.83;;;6.62;77.05
50302;BME280;36550;50.472;19.744;2023-04-07T12:18:57;97899.89;;;6.52;77.24
50302;BME280;36550;50.472;19.744;2023-04-07T12:21:41;97899.24;;;6.48;77.39
50302;BME280;36550;50.472;19.744;2023-04-07T12:24:26;97898.67;;;6.37;77.29
50302;BME280;36550;50.472;19.744;2023-04-07T12:27:11;97897.34;;;6.30;77.51
50302;BME280;36550;50.472;19.744;2023-04-07T12:29:55;97901.36;;;6.27;77.90
50302;BME280;36550;50.472;19.744;2023-04-07T12:32:39;97903.98;;;6.17;77.69
50302;BME280;36550;50.472;19.744;2023-04-07T12:35:24;97904.81;;;6.12;77.86
50302;BME280;36550;50.472;19.744;2023-04-07T12:38:08;97906.98;;;6.09;77.84
50302;BME280;36550;50.472;19.744;2023-04-07T12:40:52;97902.77;;;6.04;77.84
50302;BME280;36550;50.472;19.744;2023-04-07T12:43:36;97901.85;;;6.03;78.28
50302;BME280;36550;50.472;19.744;2023-04-07T12:46:20;97906.60;;;5.99;78.42
50302;BME280;36550;50.472;19.744;2023-04-07T12:49:04;97907.73;;;5.86;78.40
50302;BME280;36550;50.472;19.744;2023-04-07T12:51:49;97910.98;;;5.77;78.64
50302;BME280;36550;50.472;19.744;2023-04-07T12:54:33;97914.59;;;5.70;78.89
50302;BME280;36550;50.472;19.744;2023-04-07T12:57:18;97919.41;;;5.56;78.78
50302;BME280;36550;50.472;19.744;2023-04-07T13:00:02;97921.39;;;5.44;79.12
50302;BME280;36550;50.472;19.744;2023-04-07T13:02:46;97921.65;;;5.31;79.46
50302;BME280;36550;50.472;19.744;2023-04-07T13:05:31;97919.86;;;5.25;79.64
50302;BME280;36550;50.472;19.744;2023-04-07T13:08:14;97920.51;;;5.25;79.89
50302;BME280;36550;50.472;19.744;2023-04-07T13:10:59;97922.70;;;5.26;80.03
50302;BME280;36550;50.472;19.744;2023-04-07T13:13:43;97920.89;;;5.29;80.20
50302;BME280;36550;50.472;19.744;2023-04-07T13:16:27;97925.90;;;5.27;80.32
50302;BME280;36550;50.472;19.744;2023-04-07T13:19:11;97925.23;;;5.25;80.43
50302;BME280;36550;50.472;19.744;2023-04-07T13:21:55;97919.66;;;5.25;80.61
50302;BME280;36550;50.472;19.744;2023-04-07T13:24:39;97925.98;;;5.25;80.53
50302;BME280;36550;50.472;19.744;2023-04-07T13:27:23;97924.85;;;5.28;80.72
50302;BME280;36550;50.472;19.744;2023-04-07T13:30:07;97926.52;;;5.29;80.56
50302;BME280;36550;50.472;19.744;2023-04-07T13:32:51;97925.76;;;5.31;80.47
50302;BME280;36550;50.472;19.744;2023-04-07T13:35:35;97929.49;;;5.32;80.69
50302;BME280;36550;50.472;19.744;2023-04-07T13:38:20;97924.89;;;5.29;80.75
50302;BME280;36550;50.472;19.744;2023-04-07T13:41:03;97924.81;;;5.33;80.93
50302;BME280;36550;50.472;19.744;2023-04-07T13:43:47;97924.69;;;5.41;81.20
50302;BME280;36550;50.472;19.744;2023-04-07T13:46:31;97929.27;;;5.44;81.11
50302;BME280;36550;50.472;19.744;2023-04-07T13:49:15;97927.44;;;5.43;80.83
50302;BME280;36550;50.472;19.744;2023-04-07T13:51:59;97919.30;;;5.46;80.85
50302;BME280;36550;50.472;19.744;2023-04-07T13:54:43;97916.29;;;5.52;81.06
50302;BME280;36550;50.472;19.744;2023-04-07T13:57:28;97922.05;;;5.53;80.90
50302;BME280;36550;50.472;19.744;2023-04-07T14:00:12;97921.93;;;5.51;80.97
50302;BME280;36550;50.472;19.744;2023-04-07T14:02:56;97919.77;;;5.51;81.15
50302;BME280;36550;50.472;19.744;2023-04-07T14:05:41;97919.73;;;5.52;81.16
50302;BME280;36550;50.472;19.744;2023-04-07T14:08:26;97915.23;;;5.60;81.13
50302;BME280;36550;50.472;19.744;2023-04-07T14:11:10;97917.48;;;5.68;81.32
50302;BME280;36550;50.472;19.744;2023-04-07T14:13:54;97920.58;;;5.66;81.08
50302;BME280;36550;50.472;19.744;2023-04-07T14:16:39;97917.84;;;5.55;81.21
50302;BME280;36550;50.472;19.744;2023-04-07T14:19:23;97919.70;;;5.43;81.16
50302;BME280;36550;50.472;19.744;2023-04-07T14:22:07;97925.39;;;5.38;81.31
50302;BME280;36550;50.472;19.744;2023-04-07T14:24:51;97926.36;;;5.33;81.47
50302;BME280;36550;50.472;19.744;2023-04-07T14:27:35;97924.85;;;5.32;81.56
50302;BME280;36550;50.472;19.744;2023-04-07T14:30:20;97928.77;;;5.36;81.78
50302;BME280;36550;50.472;19.744;2023-04-07T14:33:04;97929.60;;;5.39;81.74
50302;BME280;36550;50.472;19.744;2023-04-07T14:35:48;97928.33;;;5.40;81.70
50302;BME280;36550;50.472;19.744;2023-04-07T14:38:32;97929.69;;;5.37;81.87
50302;BME280;36550;50.472;19.744;2023-04-07T14:41:16;97931.21;;;5.34;81.95
50302;BME280;36550;50.472;19.744;2023-04-07T14:44:00;97932.25;;;5.32;82.19
50302;BME280;36550;50.472;19.744;2023-04-07T14:46:44;97929.37;;;5.30;81.93
50302;BME280;36550;50.472;19.744;2023-04-07T14:49:29;97933.54;;;5.33;82.03
50302;BME280;36550;50.472;19.744;2023-04-07T14:52:13;97931.10;;;5.37;82.20
50302;BME280;36550;50.472;19.744;2023-04-07T14:54:57;97931.65;;;5.37;82.09
50302;BME280;36550;50.472;19.744;2023-04-07T14:57:41;97931.65;;;5.35;82.00